createdAt,value
2022-10-28T00:02:22.415Z,16.99
2022-10-28T00:04:48.260Z,16.89
2022-10-28T00:07:14.101Z,16.94
2022-10-28T00:09:39.918Z,17.08
2022-10-28T00:12:05.833Z,16.97
2022-10-28T00:14:31.845Z,17.06
2022-10-28T00:16:57.592Z,17.07
2022-10-28T00:19:23.364Z,17.09
2022-10-28T00:21:49.259Z,17.06
2022-10-28T00:24:14.996Z,17.12
2022-10-28T00:26:42.029Z,17.07
2022-10-28T00:29:14.911Z,17.20
2022-10-28T00:31:41.341Z,17.23
2022-10-28T00:34:11.052Z,17.22
2022-10-28T00:36:40.313Z,17.14
2022-10-28T00:39:14.968Z,17.18
2022-10-28T00:41:46.834Z,17.25
2022-10-28T00:44:50.373Z,17.38
2022-10-28T00:47:22.090Z,17.42
2022-10-28T00:49:51.170Z,17.32
2022-10-28T00:52:23.710Z,17.40
2022-10-28T00:54:51.006Z,17.45
2022-10-28T00:57:23.561Z,17.36
2022-10-28T00:59:52.724Z,17.40
2022-10-28T01:02:19.690Z,17.44
2022-10-28T01:04:46.524Z,17.44
2022-10-28T01:07:13.011Z,17.41
2022-10-28T01:09:39.919Z,17.42
2022-10-28T01:12:30.871Z,17.43
2022-10-28T01:14:59.984Z,17.49
2022-10-28T01:17:49.874Z,17.67
2022-10-28T01:20:25.219Z,17.77
2022-10-28T01:22:58.265Z,17.76
2022-10-28T01:26:07.051Z,17.82
2022-10-28T01:29:01.779Z,17.79
2022-10-28T01:31:31.879Z,17.72
2022-10-28T01:34:25.755Z,17.86
2022-10-28T01:40:51.348Z,17.90
2022-10-28T01:43:29.718Z,17.87
2022-10-28T01:45:59.546Z,17.95
2022-10-28T01:48:41.220Z,18.02
2022-10-28T01:51:13.023Z,18.08
2022-10-28T01:53:42.319Z,18.03
2022-10-28T01:56:13.606Z,18.04
2022-10-28T01:58:39.977Z,18.06
2022-10-28T02:01:08.496Z,18.06
2022-10-28T02:03:34.284Z,17.97
2022-10-28T02:06:04.486Z,17.90
2022-10-28T02:08:49.328Z,17.88
2022-10-28T02:11:30.170Z,17.96
2022-10-28T02:14:09.390Z,17.88
2022-10-28T02:16:54.348Z,17.70
2022-10-28T02:19:40.998Z,17.84
2022-10-28T02:22:14.897Z,17.67
2022-10-28T02:24:59.636Z,17.66
2022-10-28T02:27:47.681Z,17.63
2022-10-28T02:30:45.291Z,17.67
2022-10-28T02:33:16.825Z,17.67
2022-10-28T02:35:48.412Z,17.57
2022-10-28T02:38:21.103Z,17.69
2022-10-28T02:40:53.890Z,17.60
2022-10-28T02:43:22.373Z,17.56
2022-10-28T02:45:52.296Z,17.58
2022-10-28T02:48:28.033Z,17.64
2022-10-28T02:50:59.823Z,17.64
2022-10-28T02:53:32.493Z,17.58
2022-10-28T02:56:03.433Z,17.64
2022-10-28T02:58:37.819Z,17.61
2022-10-28T03:01:03.657Z,17.72
2022-10-28T03:03:29.453Z,17.74
2022-10-28T03:05:55.124Z,17.79
2022-10-28T03:08:20.977Z,17.85
2022-10-28T03:10:46.721Z,17.88
2022-10-28T03:13:12.423Z,17.76
2022-10-28T03:15:38.283Z,17.80
2022-10-28T03:18:04.054Z,17.75
2022-10-28T03:20:29.887Z,17.74
2022-10-28T03:22:56.188Z,17.69
2022-10-28T03:25:22.115Z,17.71
2022-10-28T03:27:47.929Z,17.65
2022-10-28T03:30:13.866Z,17.64
2022-10-28T03:32:42.435Z,17.57
2022-10-28T03:35:08.572Z,17.54
2022-10-28T03:37:34.557Z,17.58
2022-10-28T03:40:01.845Z,17.49
2022-10-28T03:42:28.542Z,17.49
2022-10-28T03:44:56.474Z,17.50
2022-10-28T03:47:22.246Z,17.50
2022-10-28T03:49:50.257Z,17.47
2022-10-28T03:52:16.103Z,17.49
2022-10-28T03:54:42.055Z,17.47
2022-10-28T03:57:07.868Z,17.46
2022-10-28T03:59:33.680Z,17.30
2022-10-28T04:01:59.584Z,17.31
2022-10-28T04:04:28.469Z,17.33
2022-10-28T04:06:56.421Z,17.17
2022-10-28T04:09:22.185Z,17.21
2022-10-28T04:11:48.660Z,17.23
2022-10-28T04:14:14.674Z,17.09
2022-10-28T04:16:40.416Z,17.11
2022-10-28T04:19:06.322Z,17.14
2022-10-28T04:21:32.394Z,16.96
2022-10-28T04:23:58.345Z,17.00
2022-10-28T04:26:24.142Z,16.94
2022-10-28T04:28:50.052Z,16.94
2022-10-28T04:31:16.022Z,16.84
2022-10-28T04:33:41.841Z,16.87
2022-10-28T04:36:07.935Z,16.83
2022-10-28T04:38:33.720Z,16.85
2022-10-28T04:40:59.747Z,16.86
2022-10-28T04:43:25.502Z,16.83
2022-10-28T04:45:51.769Z,16.79
2022-10-28T04:48:20.812Z,16.74
2022-10-28T04:50:46.671Z,16.67
2022-10-28T04:53:12.718Z,16.79
2022-10-28T04:55:38.808Z,16.61
2022-10-28T04:58:04.626Z,16.60
2022-10-28T05:00:30.836Z,16.54
2022-10-28T05:02:57.158Z,16.52
2022-10-28T05:05:23.106Z,16.59
2022-10-28T05:07:48.979Z,16.51
2022-10-28T05:10:15.621Z,16.44
2022-10-28T05:12:42.502Z,16.44
2022-10-28T05:15:09.128Z,16.58
2022-10-28T05:17:34.912Z,16.48
2022-10-28T05:20:00.696Z,16.48
2022-10-28T05:22:26.430Z,16.56
2022-10-28T05:24:52.199Z,16.60
2022-10-28T05:27:17.935Z,16.64
2022-10-28T05:29:43.706Z,16.58
2022-10-28T05:32:09.428Z,16.59
2022-10-28T05:34:35.515Z,16.66
2022-10-28T05:37:01.275Z,16.69
2022-10-28T05:39:27.028Z,16.70
2022-10-28T05:41:52.823Z,16.73
2022-10-28T05:44:18.580Z,16.71
2022-10-28T05:46:44.318Z,16.73
2022-10-28T05:49:10.037Z,16.69
2022-10-28T05:51:35.806Z,16.64
2022-10-28T05:54:01.542Z,16.65
2022-10-28T05:56:27.301Z,16.63
2022-10-28T05:58:53.024Z,16.75
2022-10-28T06:01:19.429Z,16.73
2022-10-28T06:03:45.216Z,16.71
2022-10-28T06:06:10.971Z,16.72
2022-10-28T06:08:36.755Z,16.70
2022-10-28T06:11:01.035Z,16.73
2022-10-28T06:13:26.807Z,16.72
2022-10-28T06:15:53.564Z,16.78
2022-10-28T06:18:20.655Z,16.86
2022-10-28T06:20:51.456Z,16.73
2022-10-28T06:23:17.249Z,16.74
2022-10-28T06:25:43.047Z,16.84
2022-10-28T06:28:10.426Z,16.90
2022-10-28T06:30:36.343Z,16.91
2022-10-28T06:33:02.082Z,16.94
2022-10-28T06:35:27.860Z,16.95
2022-10-28T06:37:55.283Z,16.85
2022-10-28T06:40:22.949Z,16.96
2022-10-28T06:42:56.648Z,17.09
2022-10-28T06:45:22.526Z,16.97
2022-10-28T06:47:54.453Z,17.03
2022-10-28T06:50:20.262Z,17.04
2022-10-28T06:55:17.064Z,17.02
2022-10-28T06:57:42.862Z,17.06
2022-10-28T07:00:09.186Z,16.94
2022-10-28T07:02:35.057Z,16.89
2022-10-28T07:05:00.812Z,16.94
2022-10-28T07:07:26.568Z,17.02
2022-10-28T07:09:52.299Z,17.06
2022-10-28T07:14:48.787Z,17.13
2022-10-28T07:17:14.520Z,17.11
2022-10-28T07:19:40.316Z,17.08
2022-10-28T07:22:06.116Z,17.11
2022-10-28T07:24:32.011Z,17.11
2022-10-28T07:26:57.957Z,17.18
2022-10-28T07:29:23.797Z,17.28
2022-10-28T07:31:54.020Z,17.28
2022-10-28T07:34:25.907Z,17.36
2022-10-28T07:36:54.461Z,17.33
2022-10-28T07:39:20.652Z,17.45
2022-10-28T07:41:46.906Z,17.42
2022-10-28T07:44:13.415Z,17.38
2022-10-28T07:46:39.747Z,17.42
2022-10-28T07:49:05.690Z,17.47
2022-10-28T07:51:31.684Z,17.49
2022-10-28T07:53:57.636Z,17.45
2022-10-28T07:56:24.037Z,17.54
2022-10-28T07:58:50.034Z,17.58
2022-10-28T08:01:18.170Z,17.62
2022-10-28T08:03:44.173Z,17.61
2022-10-28T08:06:16.909Z,17.62
2022-10-28T08:08:44.022Z,17.72
2022-10-28T08:11:15.370Z,17.91
2022-10-28T08:13:41.486Z,17.96
2022-10-28T08:16:08.313Z,18.05
2022-10-28T08:18:35.185Z,18.07
2022-10-28T08:21:02.343Z,17.96
2022-10-28T08:23:28.386Z,17.85
2022-10-28T08:25:54.562Z,17.88
2022-10-28T08:28:20.615Z,17.84
2022-10-28T08:30:57.022Z,17.90
2022-10-28T08:33:23.112Z,17.92
2022-10-28T08:35:50.846Z,17.97
2022-10-28T08:38:16.727Z,17.91
2022-10-28T08:41:01.214Z,17.84
2022-10-28T08:43:46.285Z,17.97
2022-10-28T08:46:28.798Z,18.04
2022-10-28T08:48:54.651Z,18.15
2022-10-28T08:51:36.503Z,18.18
2022-10-28T08:54:11.899Z,18.41
2022-10-28T08:56:48.347Z,18.46
2022-10-28T08:59:21.031Z,18.45
2022-10-28T09:01:51.275Z,18.69
2022-10-28T09:04:39.185Z,18.55
2022-10-28T09:07:12.046Z,18.72
2022-10-28T09:09:37.955Z,18.95
2022-10-28T09:12:46.135Z,18.99
2022-10-28T09:15:29.981Z,18.86
2022-10-28T09:18:03.501Z,18.98
2022-10-28T09:20:55.098Z,19.10
2022-10-28T09:23:21.457Z,19.17
2022-10-28T09:25:55.135Z,19.31
2022-10-28T09:28:32.656Z,19.56
2022-10-28T09:31:16.990Z,19.85
2022-10-28T09:33:58.112Z,20.11
2022-10-28T09:36:51.149Z,21.56
2022-10-28T09:39:23.994Z,23.22
2022-10-28T09:41:54.841Z,25.24
2022-10-28T09:44:30.190Z,26.19
2022-10-28T09:46:59.967Z,28.84
2022-10-28T09:49:30.196Z,29.65
2022-10-28T09:52:35.972Z,31.67
2022-10-28T09:55:08.094Z,32.85
2022-10-28T09:57:33.972Z,32.83
2022-10-28T09:59:59.955Z,30.75
2022-10-28T10:02:31.440Z,28.70
2022-10-28T10:04:59.464Z,28.01
2022-10-28T10:07:36.676Z,31.79
2022-10-28T10:10:13.236Z,33.03
2022-10-28T10:12:39.065Z,34.34
2022-10-28T10:15:10.769Z,34.91
2022-10-28T10:17:43.332Z,34.59
2022-10-28T10:20:11.957Z,32.11
2022-10-28T10:22:42.688Z,33.40
2022-10-28T10:25:17.800Z,32.75
2022-10-28T10:28:16.089Z,33.86
2022-10-28T10:30:48.949Z,34.75
2022-10-28T10:33:20.672Z,32.21
2022-10-28T10:35:59.077Z,31.44
2022-10-28T10:38:27.414Z,30.31
2022-10-28T10:40:53.761Z,30.38
2022-10-28T10:43:29.765Z,29.22
2022-10-28T10:46:20.626Z,28.75
2022-10-28T10:49:06.387Z,29.27
2022-10-28T10:51:32.167Z,27.66
2022-10-28T10:54:00.150Z,28.80
2022-10-28T10:56:29.045Z,29.14
2022-10-28T10:58:58.430Z,27.61
2022-10-28T11:01:27.543Z,27.15
2022-10-28T11:06:32.210Z,27.23
2022-10-28T11:09:01.833Z,27.70
2022-10-28T11:11:39.433Z,28.17
2022-10-28T11:14:08.168Z,28.78
2022-10-28T11:16:51.012Z,28.30
2022-10-28T11:19:25.914Z,28.76
2022-10-28T11:22:16.365Z,28.54
2022-10-28T11:25:10.017Z,28.36
2022-10-28T11:27:57.473Z,27.93
2022-10-28T11:30:46.023Z,29.02
2022-10-28T11:33:30.672Z,27.84
2022-10-28T11:36:09.109Z,27.76
2022-10-28T11:39:17.703Z,28.85
2022-10-28T11:41:57.009Z,27.25
2022-10-28T11:44:37.860Z,26.57
2022-10-28T11:47:11.183Z,26.24
2022-10-28T11:49:46.105Z,26.07
2022-10-28T11:52:30.528Z,27.28
2022-10-28T11:55:02.196Z,27.99
2022-10-28T11:57:46.231Z,28.33
2022-10-28T12:00:17.653Z,30.34
2022-10-28T12:03:11.747Z,31.53
2022-10-28T12:05:49.639Z,31.93
2022-10-28T12:08:49.211Z,31.05
2022-10-28T12:11:17.751Z,28.67
2022-10-28T12:16:40.586Z,29.09
2022-10-28T12:19:18.946Z,28.54
2022-10-28T12:21:53.643Z,28.21
2022-10-28T12:24:23.260Z,28.44
2022-10-28T12:26:56.666Z,28.69
2022-10-28T12:29:40.659Z,29.56
2022-10-28T12:32:09.859Z,27.55
2022-10-28T12:34:50.118Z,28.86
2022-10-28T12:37:21.499Z,31.55
2022-10-28T12:39:56.456Z,31.79
2022-10-28T12:42:35.085Z,31.71
2022-10-28T12:45:06.145Z,32.61
2022-10-28T12:48:10.974Z,31.72
2022-10-28T12:50:44.397Z,31.76
2022-10-28T12:53:21.596Z,31.22
2022-10-28T12:55:58.104Z,30.41
2022-10-28T12:58:33.420Z,31.19
2022-10-28T13:01:03.905Z,29.87
2022-10-28T13:03:29.838Z,30.58
2022-10-28T13:06:14.207Z,31.10
2022-10-28T13:09:10.865Z,29.37
2022-10-28T13:12:14.434Z,28.75
2022-10-28T13:14:57.300Z,27.96
2022-10-28T13:17:44.663Z,27.32
2022-10-28T13:20:27.363Z,27.66
2022-10-28T13:23:11.250Z,27.41
2022-10-28T13:26:03.448Z,26.21
2022-10-28T13:28:33.737Z,25.12
2022-10-28T13:31:03.095Z,24.62
2022-10-28T13:33:31.404Z,24.51
2022-10-28T13:36:18.362Z,23.84
2022-10-28T13:39:28.662Z,23.55
2022-10-28T13:42:12.628Z,23.73
2022-10-28T13:45:01.418Z,23.43
2022-10-28T13:47:34.882Z,23.28
2022-10-28T13:50:06.859Z,23.15
2022-10-28T13:52:35.644Z,23.29
2022-10-28T13:55:13.224Z,23.07
2022-10-28T13:57:42.763Z,22.99
2022-10-28T14:00:17.361Z,22.48
2022-10-28T14:02:54.769Z,22.45
2022-10-28T14:05:44.130Z,22.40
2022-10-28T14:08:26.365Z,22.38
2022-10-28T14:11:04.784Z,22.35
2022-10-28T14:14:01.707Z,22.07
2022-10-28T14:16:28.374Z,22.01
2022-10-28T14:18:59.693Z,22.11
2022-10-28T14:22:02.130Z,22.11
2022-10-28T14:24:39.907Z,22.09
2022-10-28T14:27:08.309Z,22.13
2022-10-28T14:29:43.150Z,22.13
2022-10-28T14:32:30.811Z,22.06
2022-10-28T14:35:04.905Z,21.78
2022-10-28T14:38:08.419Z,21.92
2022-10-28T14:40:38.638Z,21.72
2022-10-28T14:43:17.531Z,21.61
2022-10-28T14:46:09.577Z,21.50
2022-10-28T14:48:45.038Z,21.48
2022-10-28T14:51:14.883Z,21.48
2022-10-28T14:53:42.656Z,21.35
2022-10-28T14:56:17.415Z,21.25
2022-10-28T14:58:43.971Z,21.39
2022-10-28T15:01:15.883Z,21.26
2022-10-28T15:04:01.246Z,21.16
2022-10-28T15:06:30.155Z,21.03
2022-10-28T15:09:01.806Z,21.00
2022-10-28T15:11:27.992Z,20.96
2022-10-28T15:13:53.805Z,20.89
2022-10-28T15:16:22.531Z,20.60
2022-10-28T15:18:51.260Z,20.65
2022-10-28T15:21:19.188Z,20.69
2022-10-28T15:23:56.894Z,20.48
2022-10-28T15:26:22.687Z,20.36
2022-10-28T15:28:48.515Z,20.39
2022-10-28T15:31:16.196Z,20.36
2022-10-28T15:33:42.325Z,20.25
2022-10-28T15:36:16.668Z,20.07
2022-10-28T15:39:03.860Z,20.14
2022-10-28T15:41:29.602Z,20.05
2022-10-28T15:43:58.477Z,19.99
2022-10-28T15:46:25.547Z,20.03
2022-10-28T15:48:56.634Z,20.11
2022-10-28T15:51:22.937Z,20.02
2022-10-28T15:53:53.303Z,19.98
2022-10-28T15:56:24.833Z,19.90
2022-10-28T15:59:21.099Z,20.02
2022-10-28T16:01:47.054Z,19.89
2022-10-28T16:04:22.077Z,19.93
2022-10-28T16:06:50.347Z,19.83
2022-10-28T16:09:34.788Z,19.76
2022-10-28T16:12:10.770Z,19.70
2022-10-28T16:14:42.961Z,19.74
2022-10-28T16:17:27.921Z,19.69
2022-10-28T16:19:56.276Z,19.69
2022-10-28T16:22:25.181Z,19.58
2022-10-28T16:24:52.846Z,19.69
2022-10-28T16:27:21.520Z,19.60
2022-10-28T16:29:47.994Z,19.44
2022-10-28T16:32:15.650Z,19.35
2022-10-28T16:34:41.522Z,19.51
2022-10-28T16:37:21.226Z,19.43
2022-10-28T16:39:47.321Z,19.33
2022-10-28T16:42:13.857Z,19.31
2022-10-28T16:44:39.786Z,19.29
2022-10-28T16:47:11.491Z,19.31
2022-10-28T16:49:37.392Z,19.31
2022-10-28T16:52:03.141Z,19.25
2022-10-28T16:54:29.380Z,19.17
2022-10-28T16:56:55.159Z,19.21
2022-10-28T16:59:21.069Z,19.11
2022-10-28T17:01:47.039Z,19.12
2022-10-28T17:04:12.870Z,19.03
2022-10-28T17:06:38.665Z,19.03
2022-10-28T17:09:04.421Z,19.06
2022-10-28T17:14:01.655Z,18.95
2022-10-28T17:16:27.446Z,18.89
2022-10-28T17:18:53.263Z,18.89
2022-10-28T17:21:19.035Z,18.84
2022-10-28T17:23:44.847Z,18.84
2022-10-28T17:26:10.573Z,18.81
2022-10-28T17:28:36.379Z,18.89
2022-10-28T17:31:06.936Z,18.85
2022-10-28T17:33:33.437Z,18.86
2022-10-28T17:36:04.602Z,18.87
2022-10-28T17:38:30.689Z,18.83
2022-10-28T17:40:57.225Z,18.66
2022-10-28T17:43:23.233Z,18.72
2022-10-28T17:45:49.727Z,18.63
2022-10-28T17:48:15.548Z,18.64
2022-10-28T17:50:43.347Z,18.67
2022-10-28T17:53:09.813Z,18.59
2022-10-28T17:55:35.638Z,18.62
2022-10-28T17:58:01.486Z,18.56
2022-10-28T18:00:27.229Z,18.64
2022-10-28T18:02:56.250Z,18.55
2022-10-28T18:05:22.341Z,18.48
2022-10-28T18:07:48.135Z,18.50
2022-10-28T18:10:15.641Z,18.46
2022-10-28T18:12:41.446Z,18.49
2022-10-28T18:15:08.874Z,18.55
2022-10-28T18:17:34.618Z,18.36
2022-10-28T18:20:01.363Z,18.43
2022-10-28T18:22:27.157Z,18.49
2022-10-28T18:24:54.343Z,18.38
2022-10-28T18:27:20.149Z,18.34
2022-10-28T18:29:46.043Z,18.35
2022-10-28T18:32:12.064Z,18.26
2022-10-28T18:34:37.874Z,18.40
2022-10-28T18:37:07.162Z,18.38
2022-10-28T18:39:33.017Z,18.40
2022-10-28T18:41:59.254Z,18.40
2022-10-28T18:44:31.271Z,18.31
2022-10-28T18:46:58.365Z,18.31
2022-10-28T18:49:24.121Z,18.28
2022-10-28T18:51:49.970Z,18.20
2022-10-28T18:54:18.453Z,18.15
2022-10-28T18:56:47.667Z,18.18
2022-10-28T18:59:14.539Z,18.24
2022-10-28T19:01:45.800Z,18.18
2022-10-28T19:04:13.504Z,18.18
2022-10-28T19:06:39.618Z,18.11
2022-10-28T19:09:06.783Z,18.07
2022-10-28T19:11:33.707Z,18.11
2022-10-28T19:14:04.647Z,18.18
2022-10-28T19:16:32.644Z,18.10
2022-10-28T19:18:59.712Z,18.12
2022-10-28T19:21:26.541Z,18.10
2022-10-28T19:23:52.865Z,18.09
2022-10-28T19:26:19.625Z,18.05
2022-10-28T19:28:47.753Z,18.04
2022-10-28T19:31:17.029Z,18.01
2022-10-28T19:33:44.536Z,17.99
2022-10-28T19:36:28.115Z,18.12
2022-10-28T19:38:55.478Z,18.02
2022-10-28T19:41:27.332Z,17.93
2022-10-28T19:43:57.947Z,17.91
2022-10-28T19:46:26.233Z,17.91
2022-10-28T19:48:53.686Z,17.86
2022-10-28T19:51:22.907Z,17.87
2022-10-28T19:53:52.856Z,17.79
2022-10-28T19:56:20.151Z,17.81
2022-10-28T19:58:52.502Z,17.90
2022-10-28T20:01:20.214Z,17.65
2022-10-28T20:03:49.268Z,17.68
2022-10-28T20:06:17.197Z,17.78
2022-10-28T20:08:45.642Z,17.71
2022-10-28T20:11:14.587Z,17.64
2022-10-28T20:13:40.999Z,17.71
2022-10-28T20:16:12.079Z,17.88
2022-10-28T20:18:38.617Z,17.69
2022-10-28T20:21:06.501Z,17.69
2022-10-28T20:23:34.879Z,17.76
2022-10-28T20:26:04.807Z,17.82
2022-10-28T20:28:30.853Z,17.71
2022-10-28T20:31:01.847Z,17.75
2022-10-28T20:33:28.858Z,17.68
2022-10-28T20:35:55.003Z,17.68
2022-10-28T20:38:21.452Z,17.58
2022-10-28T20:40:49.228Z,17.62
2022-10-28T20:43:16.631Z,17.59
2022-10-28T20:45:42.461Z,17.61
2022-10-28T20:48:08.255Z,17.60
2022-10-28T20:50:34.051Z,17.71
2022-10-28T20:52:59.817Z,17.60
2022-10-28T20:55:25.545Z,17.65
2022-10-28T20:57:51.324Z,17.61
2022-10-28T21:00:17.258Z,17.65
2022-10-28T21:02:43.145Z,17.57
2022-10-28T21:05:09.073Z,17.53
2022-10-28T21:07:35.274Z,17.53
2022-10-28T21:10:01.257Z,17.45
2022-10-28T21:12:27.009Z,17.33
2022-10-28T21:14:52.826Z,17.32
2022-10-28T21:17:18.660Z,17.27
2022-10-28T21:19:44.434Z,17.24
2022-10-28T21:22:10.145Z,17.44
2022-10-28T21:24:35.920Z,17.34
2022-10-28T21:27:01.637Z,17.23
2022-10-28T21:29:27.702Z,17.20
2022-10-28T21:31:53.502Z,17.27
2022-10-28T21:34:19.245Z,17.19
2022-10-28T21:36:45.023Z,17.22
2022-10-28T21:39:10.709Z,17.24
2022-10-28T21:41:36.475Z,17.33
2022-10-28T21:44:03.916Z,17.31
2022-10-28T21:46:29.736Z,17.27
2022-10-28T21:48:55.588Z,17.35
2022-10-28T21:51:21.364Z,17.24
2022-10-28T21:53:47.115Z,17.28
2022-10-28T21:56:17.544Z,17.21
2022-10-28T21:58:45.120Z,17.24
2022-10-28T22:01:16.578Z,17.39
2022-10-28T22:03:42.387Z,17.22
2022-10-28T22:06:08.453Z,17.24
2022-10-28T22:08:34.273Z,17.24
2022-10-28T22:11:05.909Z,17.23
2022-10-28T22:13:32.518Z,17.25
2022-10-28T22:16:03.965Z,17.16
2022-10-28T22:18:31.511Z,17.16
2022-10-28T22:21:03.609Z,17.30
2022-10-28T22:23:30.240Z,17.19
2022-10-28T22:26:06.495Z,17.21
2022-10-28T22:28:32.798Z,17.08
2022-10-28T22:30:59.812Z,17.03
2022-10-28T22:33:25.632Z,16.97
2022-10-28T22:36:02.643Z,17.05
2022-10-28T22:38:28.889Z,16.99
2022-10-28T22:41:10.625Z,17.09
2022-10-28T22:43:37.029Z,17.09
2022-10-28T22:46:03.739Z,16.97
2022-10-28T22:48:29.993Z,17.02
2022-10-28T22:50:55.784Z,16.94
2022-10-28T22:53:21.961Z,16.80
2022-10-28T22:55:48.479Z,16.84
2022-10-28T22:58:15.953Z,16.85
2022-10-28T23:00:42.327Z,16.89
2022-10-28T23:03:08.171Z,16.88
2022-10-28T23:05:33.987Z,16.76
2022-10-28T23:07:59.843Z,16.66
2022-10-28T23:10:26.496Z,16.75
2022-10-28T23:12:56.301Z,16.77
2022-10-28T23:15:23.538Z,16.76
2022-10-28T23:17:50.031Z,16.83
2022-10-28T23:20:17.140Z,16.92
2022-10-28T23:22:42.915Z,16.86
2022-10-28T23:25:08.844Z,16.88
2022-10-28T23:27:34.691Z,16.80
2022-10-28T23:30:00.443Z,16.91
2022-10-28T23:32:26.485Z,16.84
2022-10-28T23:34:52.236Z,16.85
2022-10-28T23:37:18.035Z,16.80
2022-10-28T23:39:43.823Z,16.77
2022-10-28T23:42:09.558Z,16.75
2022-10-28T23:44:36.701Z,16.85
2022-10-28T23:47:02.523Z,16.81
2022-10-28T23:49:28.870Z,16.90
2022-10-28T23:51:54.637Z,16.81
2022-10-28T23:54:20.416Z,16.86
2022-10-28T23:56:46.196Z,16.67
2022-10-28T23:59:11.985Z,16.68
